createdAt,value
2022-09-15T00:01:23.971Z,0.38
2022-09-15T00:03:52.516Z,0.60
2022-09-15T00:06:21.084Z,0.70
2022-09-15T00:08:50.233Z,0.30
2022-09-15T00:11:20.864Z,0.73
2022-09-15T00:13:49.372Z,0.47
2022-09-15T00:16:19.190Z,0.63
2022-09-15T00:18:48.239Z,0.50
2022-09-15T00:21:19.214Z,0.35
2022-09-15T00:23:50.056Z,0.50
2022-09-15T00:26:24.453Z,0.17
2022-09-15T00:28:53.286Z,0.45
2022-09-15T00:31:24.059Z,0.45
2022-09-15T00:33:54.970Z,0.47
2022-09-15T00:36:24.630Z,0.47
2022-09-15T00:38:54.421Z,0.38
2022-09-15T00:41:24.968Z,0.73
2022-09-15T00:43:55.774Z,0.60
2022-09-15T00:46:28.336Z,0.80
2022-09-15T00:49:06.980Z,0.60
2022-09-15T00:51:42.658Z,0.77
2022-09-15T00:54:18.309Z,0.50
2022-09-15T00:56:52.561Z,0.77
2022-09-15T00:59:26.153Z,0.63
2022-09-15T01:02:00.824Z,0.50
2022-09-15T01:04:28.807Z,0.50
2022-09-15T01:07:03.269Z,0.73
2022-09-15T01:12:06.276Z,0.52
2022-09-15T01:14:34.222Z,0.75
2022-09-15T01:17:11.166Z,0.57
2022-09-15T01:20:32.774Z,0.95
2022-09-15T01:23:26.516Z,1.00
2022-09-15T01:26:36.870Z,0.70
2022-09-15T01:29:53.160Z,1.02
2022-09-15T01:32:45.767Z,1.20
2022-09-15T01:35:34.178Z,1.05
2022-09-15T01:38:09.347Z,0.75
2022-09-15T01:40:45.668Z,0.63
2022-09-15T01:43:17.136Z,0.95
2022-09-15T01:45:50.659Z,0.77
2022-09-15T01:48:23.168Z,1.23
2022-09-15T01:50:56.890Z,0.80
2022-09-15T01:53:25.409Z,0.53
2022-09-15T01:56:00.729Z,0.85
2022-09-15T01:58:28.629Z,1.02
2022-09-15T02:01:07.435Z,0.82
2022-09-15T02:03:45.515Z,0.60
2022-09-15T02:06:23.102Z,0.68
2022-09-15T02:09:01.304Z,0.65
2022-09-15T02:11:30.249Z,0.57
2022-09-15T02:14:11.393Z,0.77
2022-09-15T02:16:46.778Z,0.80
2022-09-15T02:19:23.250Z,0.80
2022-09-15T02:22:00.551Z,1.20
2022-09-15T02:24:35.439Z,0.80
2022-09-15T02:27:08.274Z,0.93
2022-09-15T02:29:38.875Z,1.10
2022-09-15T02:32:10.957Z,1.40
2022-09-15T02:34:47.280Z,0.90
2022-09-15T02:37:16.480Z,0.98
2022-09-15T02:39:52.189Z,0.57
2022-09-15T02:42:27.701Z,0.70
2022-09-15T02:44:55.581Z,0.93
2022-09-15T02:47:25.441Z,0.93
2022-09-15T02:49:53.821Z,0.85
2022-09-15T02:52:22.553Z,0.77
2022-09-15T02:54:50.573Z,0.93
2022-09-15T02:57:18.595Z,0.57
2022-09-15T03:00:03.846Z,0.63
2022-09-15T03:02:32.952Z,1.27
2022-09-15T03:05:00.665Z,0.57
2022-09-15T03:07:30.038Z,0.68
2022-09-15T03:09:58.225Z,0.43
2022-09-15T03:12:26.891Z,0.60
2022-09-15T03:14:54.733Z,0.50
2022-09-15T03:17:22.569Z,0.38
2022-09-15T03:19:52.026Z,0.43
2022-09-15T03:22:19.725Z,0.75
2022-09-15T03:24:47.890Z,0.47
2022-09-15T03:27:15.717Z,0.40
2022-09-15T03:29:43.425Z,0.70
2022-09-15T03:32:11.184Z,0.40
2022-09-15T03:34:38.999Z,0.55
2022-09-15T03:37:08.531Z,0.60
2022-09-15T03:39:36.719Z,0.73
2022-09-15T03:42:05.262Z,1.15
2022-09-15T03:44:33.012Z,0.80
2022-09-15T03:47:00.734Z,0.77
2022-09-15T03:49:28.954Z,0.70
2022-09-15T03:51:57.021Z,0.57
2022-09-15T03:54:26.166Z,0.70
2022-09-15T03:56:53.963Z,0.80
2022-09-15T03:59:21.906Z,0.55
2022-09-15T04:01:50.192Z,0.50
2022-09-15T04:04:18.500Z,0.63
2022-09-15T04:06:46.358Z,0.77
2022-09-15T04:09:14.403Z,0.65
2022-09-15T04:11:43.648Z,0.60
2022-09-15T04:14:11.901Z,0.45
2022-09-15T04:16:39.668Z,0.38
2022-09-15T04:19:07.407Z,0.50
2022-09-15T04:21:35.451Z,0.50
2022-09-15T04:24:04.626Z,0.60
2022-09-15T04:26:35.373Z,0.50
2022-09-15T04:29:12.005Z,0.32
2022-09-15T04:31:39.864Z,0.63
2022-09-15T04:34:07.671Z,0.43
2022-09-15T04:36:35.572Z,0.40
2022-09-15T04:39:03.422Z,0.80
2022-09-15T04:41:31.346Z,0.68
2022-09-15T04:43:59.244Z,0.50
2022-09-15T04:46:28.533Z,0.45
2022-09-15T04:48:57.251Z,0.45
2022-09-15T04:51:27.186Z,0.80
2022-09-15T04:53:55.426Z,0.60
2022-09-15T04:56:26.195Z,1.05
2022-09-15T04:59:03.252Z,0.70
2022-09-15T05:01:35.960Z,0.35
2022-09-15T05:04:05.809Z,0.20
2022-09-15T05:06:35.634Z,0.75
2022-09-15T05:09:10.036Z,0.40
2022-09-15T05:11:39.060Z,0.85
2022-09-15T05:14:08.011Z,0.63
2022-09-15T05:16:37.232Z,0.75
2022-09-15T05:19:05.497Z,0.25
2022-09-15T05:21:33.787Z,0.60
2022-09-15T05:24:02.026Z,0.40
2022-09-15T05:26:31.662Z,0.68
2022-09-15T05:28:59.496Z,0.40
2022-09-15T05:31:31.532Z,0.55
2022-09-15T05:34:03.742Z,0.32
2022-09-15T05:36:32.186Z,0.73
2022-09-15T05:39:00.266Z,0.80
2022-09-15T05:41:29.761Z,0.70
2022-09-15T05:43:59.006Z,0.60
2022-09-15T05:46:29.035Z,0.55
2022-09-15T05:49:00.603Z,0.90
2022-09-15T05:51:30.023Z,0.60
2022-09-15T05:53:57.802Z,0.85
2022-09-15T05:56:25.726Z,1.10
2022-09-15T05:58:53.778Z,0.50
2022-09-15T06:01:24.460Z,0.57
2022-09-15T06:03:53.265Z,0.55
2022-09-15T06:06:23.354Z,0.57
2022-09-15T06:08:58.077Z,0.75
2022-09-15T06:11:29.519Z,0.63
2022-09-15T06:14:00.638Z,0.60
2022-09-15T06:16:28.985Z,1.10
2022-09-15T06:18:56.781Z,0.93
2022-09-15T06:21:29.389Z,1.17
2022-09-15T06:23:59.434Z,1.35
2022-09-15T06:26:29.199Z,1.10
2022-09-15T06:28:59.218Z,1.05
2022-09-15T06:31:28.843Z,1.17
2022-09-15T06:33:58.578Z,1.20
2022-09-15T06:36:30.552Z,1.33
2022-09-15T06:38:59.317Z,0.95
2022-09-15T06:41:33.017Z,1.23
2022-09-15T06:44:10.938Z,1.25
2022-09-15T06:46:38.796Z,1.00
2022-09-15T06:49:07.007Z,1.50
2022-09-15T06:51:36.168Z,1.20
2022-09-15T06:54:05.168Z,1.27
2022-09-15T06:56:37.890Z,1.52
2022-09-15T06:59:06.556Z,1.40
2022-09-15T07:01:34.992Z,1.55
2022-09-15T07:04:08.560Z,1.25
2022-09-15T07:06:40.564Z,1.10
2022-09-15T07:09:09.241Z,0.85
2022-09-15T07:11:37.017Z,0.80
2022-09-15T07:14:04.881Z,1.10
2022-09-15T07:16:32.928Z,0.70
2022-09-15T07:19:03.232Z,0.90
2022-09-15T07:21:30.971Z,0.95
2022-09-15T07:24:03.872Z,0.65
2022-09-15T07:26:34.723Z,0.70
2022-09-15T07:29:05.858Z,1.02
2022-09-15T07:31:36.450Z,1.38
2022-09-15T07:34:04.900Z,1.20
2022-09-15T07:36:33.228Z,0.90
2022-09-15T07:39:05.461Z,0.82
2022-09-15T07:41:33.777Z,0.73
2022-09-15T07:44:02.293Z,0.80
2022-09-15T07:46:33.446Z,1.00
2022-09-15T07:49:02.964Z,0.75
2022-09-15T07:51:31.366Z,1.13
2022-09-15T07:53:59.087Z,0.73
2022-09-15T07:56:28.408Z,0.50
2022-09-15T07:58:56.151Z,1.40
2022-09-15T08:01:23.938Z,0.40
2022-09-15T08:03:53.238Z,0.63
2022-09-15T08:06:25.311Z,0.80
2022-09-15T08:08:57.709Z,0.82
2022-09-15T08:11:30.618Z,0.82
2022-09-15T08:14:03.331Z,0.60
2022-09-15T08:16:31.599Z,0.93
2022-09-15T08:18:59.714Z,1.00
2022-09-15T08:21:29.015Z,1.05
2022-09-15T08:23:59.188Z,1.33
2022-09-15T08:26:30.898Z,0.75
2022-09-15T08:28:59.156Z,1.08
2022-09-15T08:31:26.921Z,0.95
2022-09-15T08:33:56.655Z,0.93
2022-09-15T08:36:27.418Z,1.05
2022-09-15T08:38:55.190Z,0.52
2022-09-15T08:41:28.671Z,0.90
2022-09-15T08:44:07.991Z,1.25
2022-09-15T08:46:44.112Z,0.50
2022-09-15T08:49:35.566Z,0.80
2022-09-15T08:52:17.323Z,1.02
2022-09-15T08:54:45.294Z,1.85
2022-09-15T08:57:23.238Z,1.13
2022-09-15T08:59:54.385Z,0.90
2022-09-15T09:02:56.249Z,1.00
2022-09-15T09:05:46.494Z,0.88
2022-09-15T09:09:00.094Z,1.13
2022-09-15T09:11:51.561Z,0.80
2022-09-15T09:14:33.206Z,0.63
2022-09-15T09:17:23.928Z,0.60
2022-09-15T09:20:22.462Z,0.68
2022-09-15T09:22:55.040Z,0.85
2022-09-15T09:25:28.374Z,1.05
2022-09-15T09:27:59.245Z,0.77
2022-09-15T09:30:34.010Z,0.90
2022-09-15T09:33:23.014Z,1.15
2022-09-15T09:35:53.195Z,0.88
2022-09-15T09:38:26.269Z,0.95
2022-09-15T09:40:56.596Z,1.08
2022-09-15T09:43:30.506Z,1.05
2022-09-15T09:45:59.153Z,0.80
2022-09-15T09:48:30.384Z,1.05
2022-09-15T09:50:58.312Z,1.02
2022-09-15T09:53:30.953Z,1.00
2022-09-15T09:56:22.691Z,0.93
2022-09-15T09:58:51.879Z,0.88
2022-09-15T10:01:24.979Z,1.02
2022-09-15T10:04:13.786Z,1.08
2022-09-15T10:06:42.480Z,1.20
2022-09-15T10:09:17.943Z,1.38
2022-09-15T10:11:48.762Z,1.63
2022-09-15T10:14:28.771Z,1.35
2022-09-15T10:17:00.526Z,1.20
2022-09-15T10:19:34.125Z,1.15
2022-09-15T10:22:05.510Z,1.33
2022-09-15T10:24:40.718Z,1.17
2022-09-15T10:27:26.936Z,0.93
2022-09-15T10:29:56.149Z,1.40
2022-09-15T10:32:28.318Z,1.05
2022-09-15T10:35:13.354Z,0.77
2022-09-15T10:38:03.710Z,0.70
2022-09-15T10:40:40.309Z,1.25
2022-09-15T10:43:32.833Z,0.88
2022-09-15T10:46:06.337Z,0.80
2022-09-15T10:49:06.252Z,0.95
2022-09-15T10:51:58.193Z,0.88
2022-09-15T10:54:52.516Z,0.73
2022-09-15T10:57:49.782Z,0.70
2022-09-15T11:00:23.863Z,0.70
2022-09-15T11:03:19.420Z,0.82
2022-09-15T11:06:03.008Z,1.13
2022-09-15T11:08:50.542Z,0.80
2022-09-15T11:11:33.008Z,0.85
2022-09-15T11:14:27.066Z,1.00
2022-09-15T11:17:19.657Z,0.70
2022-09-15T11:20:13.506Z,0.63
2022-09-15T11:22:53.852Z,0.85
2022-09-15T11:25:28.536Z,0.90
2022-09-15T11:28:04.377Z,0.55
2022-09-15T11:30:41.616Z,0.77
2022-09-15T11:33:19.895Z,0.60
2022-09-15T11:35:54.610Z,1.00
2022-09-15T11:38:40.390Z,0.77
2022-09-15T11:41:23.552Z,1.30
2022-09-15T11:44:05.921Z,1.20
2022-09-15T11:46:53.224Z,0.90
2022-09-15T11:49:28.709Z,1.23
2022-09-15T11:52:11.386Z,0.77
2022-09-15T11:54:48.941Z,0.95
2022-09-15T11:57:26.660Z,0.77
2022-09-15T12:00:03.748Z,1.60
2022-09-15T12:02:43.515Z,1.15
2022-09-15T12:05:20.646Z,1.13
2022-09-15T12:07:59.385Z,1.08
2022-09-15T12:10:34.598Z,1.30
2022-09-15T12:13:04.745Z,1.25
2022-09-15T12:15:34.000Z,0.88
2022-09-15T12:18:37.372Z,0.80
2022-09-15T12:21:15.728Z,1.00
2022-09-15T12:23:56.205Z,0.52
2022-09-15T12:26:27.554Z,1.00
2022-09-15T12:29:02.077Z,1.17
2022-09-15T12:31:36.187Z,0.65
2022-09-15T12:34:27.262Z,1.27
2022-09-15T12:37:07.393Z,1.30
2022-09-15T12:39:41.689Z,0.90
2022-09-15T12:42:20.236Z,1.25
2022-09-15T12:44:55.626Z,0.80
2022-09-15T12:47:33.430Z,1.00
2022-09-15T12:50:24.076Z,0.73
2022-09-15T12:52:55.450Z,0.82
2022-09-15T12:55:27.117Z,0.40
2022-09-15T12:57:58.545Z,0.50
2022-09-15T13:00:42.465Z,0.90
2022-09-15T13:03:50.421Z,0.82
2022-09-15T13:06:22.196Z,1.38
2022-09-15T13:08:56.504Z,1.17
2022-09-15T13:14:17.558Z,0.60
2022-09-15T13:16:56.560Z,1.00
2022-09-15T13:19:30.965Z,0.65
2022-09-15T13:24:49.590Z,1.47
2022-09-15T13:27:24.993Z,0.82
2022-09-15T13:30:10.607Z,0.73
2022-09-15T13:32:52.469Z,0.50
2022-09-15T13:35:41.300Z,0.88
2022-09-15T13:38:57.620Z,0.63
2022-09-15T13:41:51.049Z,0.38
2022-09-15T13:44:55.533Z,0.65
2022-09-15T13:47:42.499Z,0.93
2022-09-15T13:50:22.034Z,1.02
2022-09-15T13:53:20.363Z,0.95
2022-09-15T13:55:49.213Z,0.45
2022-09-15T14:03:47.409Z,0.60
2022-09-15T14:08:55.167Z,0.43
2022-09-15T14:11:29.017Z,0.60
2022-09-15T14:14:00.456Z,0.70
2022-09-15T14:16:35.311Z,0.68
2022-09-15T14:19:22.448Z,0.68
2022-09-15T14:21:56.184Z,0.88
2022-09-15T14:24:29.151Z,0.70
2022-09-15T14:27:02.987Z,0.82
2022-09-15T14:29:30.857Z,1.20
2022-09-15T14:32:03.869Z,0.60
2022-09-15T14:34:36.892Z,0.73
2022-09-15T14:37:13.620Z,1.10
2022-09-15T14:39:43.085Z,0.47
2022-09-15T14:42:22.361Z,0.57
2022-09-15T14:47:41.620Z,0.82
2022-09-15T14:50:16.474Z,0.65
2022-09-15T14:52:51.130Z,0.77
2022-09-15T14:55:28.115Z,0.60
2022-09-15T14:58:03.173Z,0.63
2022-09-15T15:00:40.243Z,0.70
2022-09-15T15:03:25.495Z,1.38
2022-09-15T15:06:27.665Z,0.80
2022-09-15T15:08:59.333Z,0.80
2022-09-15T15:11:29.865Z,0.95
2022-09-15T15:13:58.348Z,0.77
2022-09-15T15:16:29.126Z,0.73
2022-09-15T15:18:57.431Z,0.80
2022-09-15T15:21:40.952Z,1.00
2022-09-15T15:24:20.121Z,0.70
2022-09-15T15:26:49.657Z,0.50
2022-09-15T15:29:41.276Z,1.20
2022-09-15T15:32:14.921Z,0.47
2022-09-15T15:34:50.776Z,0.93
2022-09-15T15:37:27.661Z,1.02
2022-09-15T15:39:59.535Z,0.75
2022-09-15T15:42:29.049Z,0.43
2022-09-15T15:45:03.645Z,0.47
2022-09-15T15:47:33.848Z,0.73
2022-09-15T15:50:13.577Z,0.73
2022-09-15T15:52:42.387Z,1.08
2022-09-15T15:55:16.113Z,0.45
2022-09-15T15:57:45.077Z,0.80
2022-09-15T16:00:22.318Z,0.70
2022-09-15T16:02:51.709Z,0.40
2022-09-15T16:05:20.643Z,0.57
2022-09-15T16:07:51.958Z,1.08
2022-09-15T16:10:25.525Z,0.80
2022-09-15T16:12:53.231Z,0.95
2022-09-15T16:15:22.652Z,0.73
2022-09-15T16:17:50.955Z,0.80
2022-09-15T16:20:20.485Z,4.30
2022-09-15T16:22:48.190Z,20.83
2022-09-15T16:25:23.560Z,10.48
2022-09-15T16:27:51.353Z,4.97
2022-09-15T16:30:19.097Z,3.13
2022-09-15T16:32:46.790Z,1.50
2022-09-15T16:35:33.903Z,1.52
2022-09-15T16:38:01.759Z,1.23
2022-09-15T16:40:31.010Z,1.08
2022-09-15T16:42:58.926Z,1.27
2022-09-15T16:45:36.572Z,0.90
2022-09-15T16:48:07.752Z,1.08
2022-09-15T16:50:37.840Z,1.10
2022-09-15T16:53:10.310Z,0.75
2022-09-15T16:55:44.327Z,1.17
2022-09-15T16:58:12.342Z,1.00
2022-09-15T17:00:41.289Z,0.70
2022-09-15T17:03:09.850Z,1.00
2022-09-15T17:05:43.082Z,1.25
2022-09-15T17:08:14.773Z,0.60
2022-09-15T17:10:44.275Z,0.70
2022-09-15T17:13:17.371Z,0.95
2022-09-15T17:15:47.069Z,1.23
2022-09-15T17:18:16.281Z,0.95
2022-09-15T17:20:46.282Z,1.02
2022-09-15T17:23:20.608Z,0.88
2022-09-15T17:28:23.264Z,0.70
2022-09-15T17:30:54.050Z,1.10
2022-09-15T17:33:22.012Z,0.95
2022-09-15T17:35:50.772Z,0.70
2022-09-15T17:38:20.369Z,1.13
2022-09-15T17:40:50.800Z,2.17
2022-09-15T17:43:21.947Z,1.67
2022-09-15T17:45:51.245Z,0.75
2022-09-15T17:48:19.910Z,0.73
2022-09-15T17:50:48.906Z,0.75
2022-09-15T17:53:21.118Z,0.55
2022-09-15T17:55:51.303Z,0.52
2022-09-15T17:58:19.807Z,0.70
2022-09-15T18:00:49.985Z,0.70
2022-09-15T18:03:27.580Z,0.40
2022-09-15T18:05:56.863Z,0.55
2022-09-15T18:08:25.123Z,0.25
2022-09-15T18:10:54.342Z,0.32
2022-09-15T18:13:26.785Z,0.50
2022-09-15T18:15:55.330Z,0.10
2022-09-15T18:18:26.675Z,0.73
2022-09-15T18:20:57.730Z,0.77
2022-09-15T18:23:29.280Z,0.20
2022-09-15T18:25:58.638Z,0.30
2022-09-15T18:28:26.500Z,0.30
2022-09-15T18:30:54.328Z,0.30
2022-09-15T18:33:26.108Z,0.30
2022-09-15T18:35:58.763Z,0.50
2022-09-15T18:38:28.163Z,0.40
2022-09-15T18:40:58.393Z,0.25
2022-09-15T18:43:28.611Z,0.77
2022-09-15T18:45:59.685Z,1.05
2022-09-15T18:48:27.854Z,0.68
2022-09-15T18:50:55.730Z,0.60
2022-09-15T18:53:23.632Z,0.30
2022-09-15T18:55:52.481Z,0.10
2022-09-15T18:58:22.548Z,0.30
2022-09-15T19:00:50.490Z,0.43
2022-09-15T19:03:18.509Z,1.00
2022-09-15T19:05:46.612Z,0.30
2022-09-15T19:08:15.408Z,0.40
2022-09-15T19:10:44.102Z,0.43
2022-09-15T19:13:13.793Z,0.10
2022-09-15T19:15:44.439Z,0.30
2022-09-15T19:18:12.440Z,0.13
2022-09-15T19:20:41.034Z,0.63
2022-09-15T19:23:09.510Z,0.10
2022-09-15T19:25:37.638Z,0.50
2022-09-15T19:28:05.504Z,0.20
2022-09-15T19:30:33.552Z,0.20
2022-09-15T19:33:03.035Z,0.10
2022-09-15T19:35:30.756Z,0.10
2022-09-15T19:37:58.744Z,0.38
2022-09-15T19:40:26.719Z,0.40
2022-09-15T19:42:54.611Z,0.22
2022-09-15T19:45:22.348Z,0.50
2022-09-15T19:47:50.104Z,0.63
2022-09-15T19:50:19.319Z,0.10
2022-09-15T19:52:47.088Z,0.28
2022-09-15T19:55:14.915Z,0.28
2022-09-15T19:57:43.604Z,0.30
2022-09-15T20:00:14.501Z,0.47
2022-09-15T20:02:42.436Z,0.32
2022-09-15T20:05:10.686Z,0.30
2022-09-15T20:07:39.784Z,0.10
2022-09-15T20:10:08.592Z,0.70
2022-09-15T20:12:36.325Z,0.20
2022-09-15T20:15:04.622Z,0.60
2022-09-15T20:17:32.366Z,0.22
2022-09-15T20:20:00.116Z,0.60
2022-09-15T20:22:27.905Z,0.38
2022-09-15T20:24:57.249Z,0.20
2022-09-15T20:27:25.314Z,0.60
2022-09-15T20:29:53.147Z,0.35
2022-09-15T20:32:24.980Z,0.32
2022-09-15T20:34:56.378Z,0.28
2022-09-15T20:37:24.068Z,0.35
2022-09-15T20:39:52.229Z,0.40
2022-09-15T20:42:21.579Z,0.30
2022-09-15T20:44:49.332Z,0.43
2022-09-15T20:47:17.070Z,0.20
2022-09-15T20:49:44.789Z,0.38
2022-09-15T20:52:12.472Z,0.10
2022-09-15T20:54:40.496Z,0.22
2022-09-15T20:57:09.288Z,0.52
2022-09-15T20:59:38.468Z,0.60
2022-09-15T21:02:07.945Z,0.32
2022-09-15T21:04:35.772Z,0.55
2022-09-15T21:07:03.475Z,0.22
2022-09-15T21:09:31.176Z,0.22
2022-09-15T21:11:59.937Z,0.30
2022-09-15T21:14:27.637Z,0.43
2022-09-15T21:16:56.710Z,0.47
2022-09-15T21:19:24.429Z,0.20
2022-09-15T21:21:52.112Z,0.20
2022-09-15T21:24:21.205Z,0.10
2022-09-15T21:27:06.609Z,0.28
2022-09-15T21:29:34.358Z,0.60
2022-09-15T21:32:04.074Z,0.32
2022-09-15T21:34:32.967Z,0.65
2022-09-15T21:37:00.674Z,0.63
2022-09-15T21:39:28.399Z,0.57
2022-09-15T21:41:56.253Z,0.22
2022-09-15T21:44:23.984Z,0.40
2022-09-15T21:46:52.581Z,0.60
2022-09-15T21:49:21.620Z,0.40
2022-09-15T21:51:49.335Z,0.38
2022-09-15T21:54:17.732Z,0.22
2022-09-15T21:56:45.434Z,0.57
2022-09-15T21:59:13.330Z,0.63
2022-09-15T22:01:41.881Z,0.22
2022-09-15T22:04:10.403Z,0.43
2022-09-15T22:06:42.034Z,0.28
2022-09-15T22:09:14.371Z,0.30
2022-09-15T22:11:42.335Z,0.40
2022-09-15T22:14:11.501Z,0.17
2022-09-15T22:16:41.472Z,0.38
2022-09-15T22:19:12.677Z,0.55
2022-09-15T22:21:42.480Z,0.40
2022-09-15T22:24:13.605Z,0.20
2022-09-15T22:26:43.752Z,0.05
2022-09-15T22:29:12.316Z,0.38
2022-09-15T22:31:40.798Z,0.20
2022-09-15T22:34:08.633Z,0.70
2022-09-15T22:36:36.455Z,0.50
2022-09-15T22:39:06.271Z,0.30
2022-09-15T22:41:36.952Z,0.25
2022-09-15T22:44:06.334Z,0.13
2022-09-15T22:46:35.398Z,0.10
2022-09-15T22:49:03.722Z,0.20
2022-09-15T22:51:31.474Z,0.00
2022-09-15T22:53:59.513Z,0.38
2022-09-15T22:56:28.540Z,0.47
2022-09-15T22:58:57.418Z,0.30
2022-09-15T23:01:28.125Z,0.47
2022-09-15T23:03:58.942Z,0.28
2022-09-15T23:06:30.508Z,0.57
2022-09-15T23:09:02.100Z,0.30
2022-09-15T23:11:33.096Z,0.15
2022-09-15T23:14:02.126Z,0.35
2022-09-15T23:16:32.197Z,0.20
2022-09-15T23:19:00.700Z,0.28
2022-09-15T23:21:28.795Z,0.43
2022-09-15T23:23:57.072Z,0.63
2022-09-15T23:26:26.162Z,0.20
2022-09-15T23:28:55.692Z,0.68
2022-09-15T23:31:23.769Z,0.60
2022-09-15T23:33:51.542Z,0.35
2022-09-15T23:36:20.322Z,0.55
2022-09-15T23:38:49.362Z,0.50
2022-09-15T23:41:18.730Z,0.57
2022-09-15T23:43:47.287Z,0.35
2022-09-15T23:46:17.231Z,0.70
2022-09-15T23:48:45.546Z,0.43
2022-09-15T23:51:13.548Z,0.73
2022-09-15T23:53:41.295Z,0.68
2022-09-15T23:56:09.358Z,0.63
2022-09-15T23:58:37.084Z,0.70
